Weather History for EDQM - November, 2011

Change the Weather History Date:

Wednesday, November 9, 2011

  Actual Average Record
Temperature  
Mean Temperature 44 °F -  
Max Temperature 48 °F 41 °F 50 °F (2003)
Min Temperature 39 °F 33 °F 28 °F (2001)
Degree Days  
Heating Degree Days 22    
Moisture  
Dew Point 40 °F    
Average Humidity 92    
Maximum Humidity 100    
Minimum Humidity 76    
Precipitation  
Precipitation 0.00 in - - ()
Sea Level Pressure  
Sea Level Pressure 30.19 in    
Wind  
Wind Speed 7 mph ()    
Max Wind Speed 10 mph    
Max Gust Speed -    
Visibility 1.8 miles    
Events Fog    
Averages and records for this station are not official NWS values.
T = Trace of Precipitation, MM = Missing Value Source: Averaged Metar Reports

Daily Weather History Graph

Daily Weather History Graph

Search for Another Location

Airport or City:

Trip Planner

Search our weather history database for the weather conditions in past years. The results will help you decide how hot, cold, wet, or windy it might be!

Date:

Astronomy

Nov. 09, 2011 Rise Set
Actual Time 7:15 AM CET 4:36 PM CET
Civil Twilight 6:40 AM CET 5:11 PM CET
Nautical Twilight 6:01 AM CET 5:50 PM CET
Astronomical Twilight 5:23 AM CET 6:28 PM CET
Moon 3:39 PM CET (11/9) 5:53 AM CET (11/9)
Length of Visible Light 10h 30m
Length of Day
9h 20m
Waxing Gibbous, 98% of the Moon is Illuminated
Nov 9
Waxing Gibbous
Nov 10
Full
Nov 18
Last Quarter
Nov 25
New
Dec 2
First Quarter

Hourly Weather History & Observations

Time (CET) Temp. Windchill Dew Point Humidity Pressure Visibility Wind Dir Wind Speed Gust Speed Precip Events Conditions
12:00 AM 42 °F - 40 °F 92% 30.16 in 2 mi SE 6.7 mph - -   Mist
12:20 AM 41.0 °F 35.2 °F 39.2 °F 93% 30.12 in 1.9 mi SE 9.2 mph - N/A   Overcast
12:50 AM 41.0 °F 37.1 °F 39.2 °F 93% 30.12 in 1.6 mi SSE 5.8 mph - N/A   Overcast
1:00 AM 42 °F - 40 °F 91% 30.17 in 2 mi SE 8.9 mph - -   Mist
1:20 AM 41.0 °F 35.8 °F 39.2 °F 93% 30.12 in 1.7 mi SE 8.1 mph - N/A   Overcast
1:50 AM 41.0 °F 34.7 °F 39.2 °F 93% 30.15 in 1.6 mi SE 10.4 mph - N/A   Overcast
2:20 AM 41.0 °F 35.8 °F 39.2 °F 93% 30.15 in 1.4 mi SE 8.1 mph - N/A   Overcast
2:50 AM 41.0 °F 34.7 °F 39.2 °F 93% 30.15 in 1.4 mi SSE 10.4 mph - N/A   Overcast
3:00 AM 41 °F - 40 °F 93% 30.18 in 2 mi SE 6.7 mph - -   Mist
3:20 AM 41.0 °F 34.7 °F 37.4 °F 87% 30.15 in 1.4 mi SSE 10.4 mph - N/A   Overcast
3:50 AM 39.2 °F 33.6 °F 37.4 °F 93% 30.15 in 1.6 mi SE 8.1 mph - N/A   Overcast
4:20 AM 39.2 °F 33.6 °F 37.4 °F 93% 30.15 in 1.2 mi ESE 8.1 mph - N/A   Overcast
4:50 AM 39.2 °F 32.5 °F 37.4 °F 93% 30.15 in 0.6 mi SSE 10.4 mph - N/A   Overcast
5:00 AM 40 °F - 39 °F 96% 30.18 in 1 mi SE 4.5 mph - -   Mist
5:20 AM 39.2 °F 33.0 °F 37.4 °F 93% 30.15 in 0.7 mi SE 9.2 mph - N/A   Overcast
5:50 AM 39.2 °F 32.5 °F 37.4 °F 93% 30.15 in 0.9 mi SE 10.4 mph - N/A   Overcast
6:00 AM 40 °F - 39 °F 95% 30.20 in 2 mi SSE 6.7 mph - -   Mist
6:20 AM 39.2 °F 33.0 °F 37.4 °F 93% 30.15 in 0.7 mi SE 9.2 mph - N/A   Overcast
6:50 AM 39.2 °F 33.6 °F 37.4 °F 93% 30.15 in - SE 8.1 mph - N/A Fog Fog
7:00 AM 40 °F - 39 °F 96% 30.20 in 1 mi SE 6.7 mph - -   Mist
7:20 AM 39.2 °F 33.6 °F 37.4 °F 93% 30.15 in 0.7 mi SE 8.1 mph - N/A   Overcast
7:50 AM 39.2 °F 33.6 °F 37.4 °F 93% 30.18 in 1.3 mi ESE 8.1 mph - N/A   Overcast
8:00 AM 40 °F - 39 °F 96% 30.21 in 2 mi SE 6.7 mph - -   Mist
8:20 AM 39.2 °F 33.6 °F 39.2 °F 100% 30.18 in 1.2 mi ESE 8.1 mph - N/A   Overcast
8:50 AM 41.0 °F 36.4 °F 39.2 °F 93% 30.18 in 1.2 mi Variable 6.9 mph - N/A   Overcast
9:00 AM 40 °F - 40 °F 98% 30.21 in 2 mi SE 6.7 mph - -   Mist
9:20 AM 41.0 °F 35.2 °F 39.2 °F 93% 30.18 in 1.2 mi SE 9.2 mph - N/A   Overcast
9:50 AM 41.0 °F 35.2 °F 39.2 °F 93% 30.18 in 1.2 mi SE 9.2 mph - N/A   Overcast
10:20 AM 42.8 °F 37.5 °F 41.0 °F 93% 30.18 in 1.9 mi SE 9.2 mph - N/A   Overcast
10:50 AM 42.8 °F 38.6 °F 41.0 °F 93% 30.18 in 1.9 mi SE 6.9 mph - N/A   Overcast
11:00 AM 43 °F - 41 °F 90% 30.23 in 4 mi South 6.7 mph - -   Mist
11:20 AM 42.8 °F 38.0 °F 41.0 °F 93% 30.18 in 2.2 mi SE 8.1 mph - N/A   Overcast
11:50 AM 42.8 °F 40.1 °F 41.0 °F 93% 30.18 in - SE 4.6 mph - N/A   Overcast
12:00 PM 43 °F - 41 °F 91% 30.22 in 3 mi South 6.7 mph - -   Mist
12:20 PM 44.6 °F 42.2 °F 41.0 °F 87% 30.18 in 2.8 mi SE 4.6 mph - N/A   Mostly Cloudy
12:50 PM 46.4 °F 43.5 °F 42.8 °F 87% 30.18 in 3.1 mi ESE 5.8 mph - N/A   Scattered Clouds
1:00 PM 45 °F - 42 °F 83% 30.20 in 4 mi SE 6.7 mph - -   Mist
1:20 PM 46.4 °F 43.5 °F 41.0 °F 81% 30.18 in 4.3 mi SE 5.8 mph - N/A   Partly Cloudy
1:50 PM 48.2 °F - 41.0 °F 76% 30.18 in 5.0 mi ESE 5.8 mph - N/A   Unknown
2:00 PM 47 °F - 42 °F 76% 30.19 in 5 mi SE 4.5 mph - -   Scattered Clouds
2:20 PM 46.4 °F 43.5 °F 41.0 °F 81% 30.18 in 5.0 mi ESE 5.8 mph - N/A   Unknown
2:50 PM 46.4 °F 43.5 °F 41.0 °F 81% 30.18 in 5.0 mi ESE 5.8 mph - N/A   Unknown
3:00 PM 47 °F - 42 °F 77% 30.19 in 6 mi SE 4.5 mph - -   Clear
3:20 PM 46.4 °F 43.5 °F 41.0 °F 81% 30.18 in 5.0 mi SE 5.8 mph - N/A   Unknown
3:50 PM 44.6 °F 41.4 °F 41.0 °F 87% 30.18 in 3.7 mi SE 5.8 mph - N/A   Partly Cloudy
4:20 PM 42.8 °F 39.3 °F 39.2 °F 87% 30.18 in 3.1 mi SE 5.8 mph - N/A   Mist
4:50 PM 39.2 °F 35.9 °F 37.4 °F 93% 30.18 in 3.1 mi SE 4.6 mph - N/A   Scattered Clouds
5:00 PM 43 °F - 41 °F 89% 30.22 in 3 mi SE 4.5 mph - -   Mist
5:20 PM 41.0 °F 37.1 °F 39.2 °F 93% 30.18 in 2.2 mi SE 5.8 mph - N/A   Mostly Cloudy
5:50 PM 41.0 °F 38.0 °F 39.2 °F 93% 30.21 in 0.8 mi SE 4.6 mph - N/A   Overcast
6:00 PM 42 °F - 41 °F 94% 30.24 in 2 mi SE 4.5 mph - -   Mist
6:20 PM 41.0 °F 38.0 °F 39.2 °F 93% 30.21 in 0.7 mi SE 4.6 mph - N/A   Overcast
6:50 PM 41.0 °F 38.0 °F 39.2 °F 93% 30.21 in 0.5 mi ESE 4.6 mph - N/A Fog Fog
7:00 PM 41 °F - 41 °F 99% 30.25 in 0 mi SE 6.7 mph - - Fog Heavy Fog
7:20 PM 41.0 °F 38.0 °F 39.2 °F 93% 30.21 in 0.3 mi South 4.6 mph - N/A Fog Fog
7:50 PM 41.0 °F 39.0 °F 39.2 °F 93% 30.21 in 0.2 mi SSE 3.5 mph - N/A Fog Fog
8:00 PM 41 °F - 41 °F 100% 30.25 in 0 mi SE 2.2 mph - - Fog Heavy Fog
8:20 PM 41.0 °F 38.0 °F 39.2 °F 93% 30.21 in 0.2 mi SE 4.6 mph - N/A Fog Fog
8:50 PM 41.0 °F 38.0 °F 39.2 °F 93% 30.21 in 0.2 mi East 4.6 mph - N/A Fog Fog
9:00 PM 41 °F - 41 °F 100% 30.26 in 0 mi ESE 4.5 mph - - Fog Heavy Fog
9:20 PM 41.0 °F 38.0 °F 39.2 °F 93% 30.21 in 0.2 mi ESE 4.6 mph - N/A Fog Fog
9:50 PM 41.0 °F 38.0 °F 39.2 °F 93% 30.21 in 0.1 mi SE 4.6 mph - N/A Fog Fog
10:20 PM 39.2 °F 35.9 °F 39.2 °F 100% 30.21 in 0.2 mi ESE 4.6 mph - N/A Fog Fog
10:50 PM 41.0 °F 39.0 °F 39.2 °F 93% 30.21 in 0.1 mi ESE 3.5 mph - N/A Fog Fog
11:00 PM 40 °F - 40 °F 99% 30.26 in 0 mi SE 4.5 mph - - Fog Fog
11:20 PM 39.2 °F 35.9 °F 39.2 °F 100% 30.21 in 0.1 mi SE 4.6 mph - N/A Fog Fog
11:50 PM 39.2 °F 35.9 °F 37.4 °F 93% 30.21 in 0.1 mi SE 4.6 mph - N/A Fog Fog